Niagara Falls International Airport
KIAG : now visible

Airfield :











YOU CAN JOIN US ON...

 
LOGIN :

Register | Disclaimer

   EN    FR    IT 

 









Legend :    VFR   Marginal VFR   IFR   Intensive IFR   Very Intensive IFR
Visi :
Ceiling :
>= 8 km
>= 3000ft
5 to 8 km
1000 to 3000 ft
1500m to 5 km
500 to 1000 ft
800 to 1500m
200 to 500 ft
< 800m
< 200 ft
Symbols :   Thunderstorms  Fog  Heavy snow  Heavy precipitations  Wind > 20 kt






- Airport Elevation : 589 ft
- IATA code : IAG


KIAG - Niagara Falls International

CURRENT METAR :
  • 260417Z AUTO 23007KT 10SM BKN013 OVC022 01/00 A2977 RMK AO2 T00110000

EXPIRED METARs :
  • 260353Z 23006KT 10SM SCT013 BKN018 OVC085 01/00 A2977 RMK AO2 SLP093 T00110000
  • 260253Z 22006KT 10SM SCT040 OVC080 01/00 A2978 RMK AO2 SLP097 T00060000 58009
  • 260153Z 23009KT 10SM OVC042 01/00 A2979 RMK AO2 SLP102 T00110000

TAF KIAG
Valid from the 26 at 03:00 until the 27 at 00:00 UTC


260259Z 2603/2624 23008KT P6SM VCSH BKN040
FM260600 24008KT 4SM -RASN BR OVC007
FM261000 24012G18KT 4SM -SHSN SCT007 OVC015
FM261800 24015G25KT P6SM VCSH BKN015
FM262200 24015G25KT 4SM -SHSN BR OVC007



MET'MAP, your aeronautical weather chart ! - Copyright ORBIFLY December 2007 - Disclaimer

ORBIFLY MET'MAP TEAM :

Programming & Development : Alexandra Zaïnal
Concept & original design : Baudouin d'Aumeries
Assistance for programming : Marc-Olivier Méhu
Technical & hardware support : Manuel Goepfert

Contact : metmap@orbifly.com




SOURCES & CREDITS :

   NOAA       Earth
Advisory